Terminal Aerodrome Forecast
Issued by NWS Cleveland, OH

Home | Current Version | Previous Version | Text Only | Print | Product List | Glossary Off
Versions: 1 2 3 4 5 6 7 8 9 10 11 12 13 14 15 16 17

047
FTUS41 KCLE 261137
TAFTOL
TAF
KTOL 261137Z 2612/2712 27014G22KT 2SM -TSRA OVC015CB
     FM261300 27012G18KT 5SM -SHRA BKN015 OVC025
     FM261700 27014G22KT P6SM SCT020 OVC080
     FM262200 27010KT P6SM SCT080=

USA.gov is the U.S. government's official web portal to all federal, state and local government web resources and services.